Terminal Aerodrome Forecast
Issued by NWS

Home | Current Version | Previous Version | Text Only | Print | Product List | Glossary On
Versions: 1 2 3 4 5 6 7 8 9 10 11 12 13 14
085
FTPA31 PHFO 182338
TAFHLI
TAF
PHLI 182338Z 1900/1924 01014KT P6SM VCSH SCT025 BKN045
      TEMPO 1900/1903 -RA BKN025
     FM190400 01011KT P6SM SCT025 SCT045
     FM191000 30008KT P6SM SCT025 SCT045
     FM192000 01014KT P6SM SCT025 SCT045=

USA.gov is the U.S. government's official web portal to all federal, state and local government web resources and services.